createdAt,value
2023-03-29T00:03:27.965Z,36.35
2023-03-29T00:10:50.233Z,37.75
2023-03-29T00:18:08.606Z,25.35
2023-03-29T00:25:28.467Z,33.00
2023-03-29T00:32:46.986Z,35.13
2023-03-29T00:40:08.635Z,40.30
2023-03-29T00:47:31.604Z,39.90
2023-03-29T00:54:52.102Z,35.75
2023-03-29T01:02:18.285Z,35.22
2023-03-29T01:09:41.459Z,59.17
2023-03-29T01:16:59.916Z,46.30
2023-03-29T01:24:30.437Z,47.05
2023-03-29T01:31:52.926Z,52.05
2023-03-29T01:39:12.072Z,42.15
2023-03-29T01:46:34.671Z,47.67
2023-03-29T01:54:00.575Z,53.13
2023-03-29T02:01:26.110Z,45.85
2023-03-29T02:08:45.565Z,48.45
2023-03-29T02:16:12.519Z,46.38
2023-03-29T02:23:35.086Z,55.90
2023-03-29T02:30:56.642Z,34.23
2023-03-29T02:38:17.263Z,43.25
2023-03-29T02:45:37.791Z,48.08
2023-03-29T02:52:59.836Z,44.15
2023-03-29T03:00:23.304Z,41.72
2023-03-29T03:07:42.712Z,38.78
2023-03-29T03:15:01.247Z,41.15
2023-03-29T03:22:21.030Z,36.35
2023-03-29T03:29:39.421Z,34.40
2023-03-29T03:37:12.107Z,30.17
2023-03-29T03:44:32.254Z,34.20
2023-03-29T03:52:18.373Z,35.47
2023-03-29T03:59:39.062Z,28.20
2023-03-29T04:07:03.854Z,32.92
2023-03-29T04:14:22.255Z,32.95
2023-03-29T04:21:46.170Z,30.73
2023-03-29T04:29:04.840Z,34.03
2023-03-29T04:36:35.662Z,38.95
2023-03-29T04:43:58.148Z,33.78
2023-03-29T04:51:17.736Z,31.70
2023-03-29T04:58:36.881Z,38.38
2023-03-29T05:05:57.540Z,29.95
2023-03-29T05:13:17.189Z,32.17
2023-03-29T05:20:35.550Z,27.85
2023-03-29T05:27:55.480Z,28.95
2023-03-29T05:35:13.950Z,31.17
2023-03-29T05:42:32.439Z,28.13
2023-03-29T05:49:58.562Z,36.90
2023-03-29T05:57:18.431Z,33.40
2023-03-29T06:04:37.600Z,27.58
2023-03-29T06:12:12.400Z,25.48
2023-03-29T06:19:36.773Z,28.15
2023-03-29T06:26:55.280Z,21.70
2023-03-29T06:34:16.597Z,23.05
2023-03-29T06:42:20.052Z,24.63
2023-03-29T06:49:59.668Z,22.55
2023-03-29T06:57:23.008Z,22.80
2023-03-29T07:04:42.761Z,18.98
2023-03-29T07:12:13.523Z,19.05
2023-03-29T07:19:32.416Z,21.85
2023-03-29T07:27:08.973Z,16.10
2023-03-29T07:34:30.165Z,12.85
2023-03-29T07:41:48.789Z,13.60
2023-03-29T07:49:08.888Z,11.15
2023-03-29T07:56:29.219Z,11.63
2023-03-29T08:04:08.513Z,20.70
2023-03-29T08:11:57.687Z,8.93
2023-03-29T08:19:22.594Z,11.77
2023-03-29T08:26:54.916Z,12.23
2023-03-29T08:34:15.310Z,13.60
2023-03-29T08:41:51.439Z,9.90
2023-03-29T08:49:12.433Z,7.30
2023-03-29T08:56:34.489Z,9.52
2023-03-29T09:04:15.189Z,8.20
2023-03-29T09:11:58.344Z,6.20
2023-03-29T09:19:23.549Z,6.77
2023-03-29T09:26:48.170Z,7.47
2023-03-29T09:34:23.250Z,6.53
2023-03-29T09:41:51.671Z,13.07
2023-03-29T09:49:17.171Z,10.70
2023-03-29T09:56:36.069Z,8.60
2023-03-29T10:04:07.844Z,8.77
2023-03-29T10:11:31.565Z,4.95
2023-03-29T10:26:15.067Z,6.05
2023-03-29T10:33:35.571Z,8.23
2023-03-29T10:40:54.690Z,8.02
2023-03-29T10:48:16.406Z,7.78
2023-03-29T10:55:41.355Z,9.65
2023-03-29T11:03:35.447Z,7.07
2023-03-29T11:11:01.405Z,12.18
2023-03-29T11:18:42.995Z,7.65
2023-03-29T11:26:08.023Z,8.60
2023-03-29T11:33:34.850Z,8.38
2023-03-29T11:40:59.216Z,11.15
2023-03-29T11:48:22.409Z,10.63
2023-03-29T11:55:41.532Z,6.90
2023-03-29T12:03:03.479Z,4.57
2023-03-29T12:10:23.777Z,7.22
2023-03-29T12:17:46.504Z,4.93
2023-03-29T12:25:10.372Z,4.25
2023-03-29T12:32:52.698Z,5.57
2023-03-29T12:40:38.146Z,7.03
2023-03-29T12:48:17.618Z,7.22
2023-03-29T12:55:52.346Z,10.32
2023-03-29T13:03:22.920Z,6.25
2023-03-29T13:10:43.867Z,9.07
2023-03-29T13:18:12.265Z,10.18
2023-03-29T13:25:58.767Z,7.30
2023-03-29T13:33:50.478Z,9.00
2023-03-29T13:41:27.752Z,10.93
2023-03-29T13:49:07.350Z,5.80
2023-03-29T13:56:31.752Z,4.93
2023-03-29T14:03:51.749Z,5.95
2023-03-29T14:11:21.232Z,9.27
2023-03-29T14:18:44.691Z,7.95
2023-03-29T14:33:27.539Z,7.38
2023-03-29T14:40:47.206Z,8.38
2023-03-29T14:48:06.129Z,7.47
2023-03-29T14:55:25.645Z,7.72
2023-03-29T15:02:52.774Z,6.38
2023-03-29T15:10:21.366Z,4.07
2023-03-29T15:17:51.234Z,6.15
2023-03-29T15:25:17.765Z,6.57
2023-03-29T15:32:38.922Z,5.20
2023-03-29T15:39:58.399Z,5.28
2023-03-29T15:47:18.388Z,7.85
2023-03-29T15:54:37.348Z,6.80
2023-03-29T16:01:55.984Z,7.82
2023-03-29T16:09:16.203Z,8.02
2023-03-29T16:16:35.180Z,6.32
2023-03-29T16:23:53.724Z,6.47
2023-03-29T16:31:15.066Z,11.27
2023-03-29T16:38:34.252Z,5.75
2023-03-29T16:45:53.620Z,8.40
2023-03-29T16:53:13.576Z,11.00
2023-03-29T17:00:33.580Z,5.18
2023-03-29T17:07:51.812Z,6.95
2023-03-29T17:15:13.025Z,9.18
2023-03-29T17:22:31.331Z,9.98
2023-03-29T17:29:50.430Z,7.38
2023-03-29T17:37:10.240Z,8.15
2023-03-29T17:44:28.476Z,11.68
2023-03-29T17:51:47.267Z,8.60
2023-03-29T17:59:06.914Z,10.05
2023-03-29T18:06:25.135Z,7.15
2023-03-29T18:13:44.366Z,7.57
2023-03-29T18:21:04.389Z,13.25
2023-03-29T18:28:25.115Z,12.88
2023-03-29T18:35:48.681Z,9.55
2023-03-29T18:43:08.535Z,10.32
2023-03-29T18:50:27.261Z,10.98
2023-03-29T18:57:45.550Z,11.73
2023-03-29T19:05:05.705Z,11.68
2023-03-29T19:12:24.127Z,12.88
2023-03-29T19:19:42.636Z,14.18
2023-03-29T19:27:03.264Z,14.93
2023-03-29T19:34:24.038Z,13.95
2023-03-29T19:41:42.432Z,12.13
2023-03-29T19:49:04.406Z,10.10
2023-03-29T19:56:26.001Z,12.55
2023-03-29T20:03:46.478Z,21.25
2023-03-29T20:11:10.743Z,20.50
2023-03-29T20:18:29.034Z,13.90
2023-03-29T20:25:47.419Z,14.40
2023-03-29T20:33:07.577Z,15.90
2023-03-29T20:40:26.135Z,14.73
2023-03-29T20:47:50.503Z,13.82
2023-03-29T20:55:12.569Z,18.40
2023-03-29T21:02:31.754Z,15.23
2023-03-29T21:09:50.506Z,16.00
2023-03-29T21:17:10.473Z,12.07
2023-03-29T21:24:28.702Z,13.70
2023-03-29T21:31:46.990Z,13.23
2023-03-29T21:39:06.947Z,16.20
2023-03-29T21:46:26.000Z,19.20
2023-03-29T21:53:44.274Z,19.67
2023-03-29T22:01:05.419Z,15.35
2023-03-29T22:08:26.412Z,16.10
2023-03-29T22:15:45.347Z,15.75
2023-03-29T22:23:04.949Z,14.48
2023-03-29T22:30:23.574Z,18.75
2023-03-29T22:37:42.805Z,17.17
2023-03-29T22:45:02.566Z,17.52
2023-03-29T22:52:20.750Z,13.82
2023-03-29T22:59:39.147Z,14.68
2023-03-29T23:07:00.307Z,16.35
2023-03-29T23:14:19.123Z,18.08
2023-03-29T23:21:37.927Z,12.70
2023-03-29T23:28:57.900Z,13.75
2023-03-29T23:36:17.721Z,15.05
2023-03-29T23:43:37.359Z,16.60
2023-03-29T23:50:58.162Z,16.83
2023-03-29T23:58:16.869Z,15.82
